createdAt,value
2022-12-31T00:00:59.608Z,13.40
2022-12-31T00:02:32.397Z,13.50
2022-12-31T00:04:05.561Z,13.50
2022-12-31T00:05:38.446Z,13.50
2022-12-31T00:07:11.156Z,13.50
2022-12-31T00:08:44.252Z,13.50
2022-12-31T00:10:17.078Z,13.60
2022-12-31T00:11:49.793Z,13.60
2022-12-31T00:13:22.510Z,13.60
2022-12-31T00:14:55.204Z,13.60
2022-12-31T00:16:32.043Z,13.60
2022-12-31T00:18:04.840Z,13.60
2022-12-31T00:19:37.578Z,13.70
2022-12-31T00:21:11.402Z,13.70
2022-12-31T00:22:44.105Z,13.70
2022-12-31T00:24:16.839Z,13.80
2022-12-31T00:25:48.567Z,13.80
2022-12-31T00:27:22.300Z,13.70
2022-12-31T00:28:56.792Z,13.80
2022-12-31T00:30:28.627Z,13.80
2022-12-31T00:32:02.658Z,13.80
2022-12-31T00:33:34.698Z,13.90
2022-12-31T00:35:08.324Z,13.90
2022-12-31T00:36:42.538Z,13.90
2022-12-31T00:38:14.318Z,13.90
2022-12-31T00:39:47.001Z,13.90
2022-12-31T00:41:20.853Z,13.90
2022-12-31T00:42:53.630Z,13.90
2022-12-31T00:44:26.390Z,14.00
2022-12-31T00:45:59.940Z,13.90
2022-12-31T00:47:34.014Z,13.90
2022-12-31T00:49:07.405Z,13.90
2022-12-31T00:50:40.110Z,13.90
2022-12-31T00:52:13.761Z,13.90
2022-12-31T00:53:47.237Z,13.90
2022-12-31T00:55:19.936Z,14.00
2022-12-31T00:56:52.691Z,14.00
2022-12-31T00:58:25.442Z,14.00
2022-12-31T00:59:57.183Z,14.00
2022-12-31T01:01:31.928Z,14.00
2022-12-31T01:03:07.078Z,13.90
2022-12-31T01:04:39.881Z,14.00
2022-12-31T01:06:13.467Z,14.00
2022-12-31T01:07:46.182Z,14.00
2022-12-31T01:09:19.420Z,14.10
2022-12-31T01:11:18.263Z,14.10
2022-12-31T01:12:50.951Z,14.10
2022-12-31T01:14:23.823Z,14.10
2022-12-31T01:15:55.580Z,14.10
2022-12-31T01:17:28.477Z,14.10
2022-12-31T01:19:04.442Z,14.10
2022-12-31T01:20:38.373Z,14.10
2022-12-31T01:22:11.084Z,14.10
2022-12-31T01:23:44.305Z,14.10
2022-12-31T01:25:17.070Z,14.10
2022-12-31T01:26:51.051Z,14.10
2022-12-31T01:28:23.746Z,14.10
2022-12-31T01:29:56.432Z,14.10
2022-12-31T01:31:29.650Z,14.10
2022-12-31T01:33:02.399Z,14.10
2022-12-31T01:34:36.429Z,14.20
2022-12-31T01:36:11.382Z,14.20
2022-12-31T01:37:44.163Z,14.30
2022-12-31T01:39:16.927Z,14.30
2022-12-31T01:40:48.687Z,14.30
2022-12-31T01:42:21.382Z,14.40
2022-12-31T01:43:56.719Z,14.40
2022-12-31T01:45:29.556Z,14.40
2022-12-31T01:47:03.624Z,14.40
2022-12-31T01:48:36.343Z,14.30
2022-12-31T01:50:14.805Z,14.30
2022-12-31T01:51:51.419Z,14.30
2022-12-31T01:53:24.215Z,14.30
2022-12-31T01:55:01.088Z,14.20
2022-12-31T01:56:33.950Z,14.30
2022-12-31T01:58:10.331Z,14.30
2022-12-31T01:59:43.264Z,14.20
2022-12-31T02:01:21.689Z,14.30
2022-12-31T02:02:54.621Z,14.20
2022-12-31T02:04:28.889Z,14.30
2022-12-31T02:06:08.363Z,14.20
2022-12-31T02:07:41.088Z,14.20
2022-12-31T02:09:13.912Z,14.20
2022-12-31T02:10:46.623Z,14.20
2022-12-31T02:12:19.307Z,14.20
2022-12-31T02:13:58.411Z,14.20
2022-12-31T02:15:40.449Z,14.20
2022-12-31T02:17:20.254Z,14.20
2022-12-31T02:18:58.166Z,14.20
2022-12-31T02:20:56.811Z,14.20
2022-12-31T02:22:46.160Z,14.20
2022-12-31T02:24:48.725Z,14.20
2022-12-31T02:26:45.886Z,14.20
2022-12-31T02:28:35.202Z,14.20
2022-12-31T02:30:13.436Z,14.20
2022-12-31T02:31:50.177Z,14.20
2022-12-31T02:33:29.107Z,14.30
2022-12-31T02:35:08.357Z,14.20
2022-12-31T02:36:45.287Z,14.20
2022-12-31T02:38:23.444Z,14.20
2022-12-31T02:39:57.268Z,14.10
2022-12-31T02:41:47.724Z,14.20
2022-12-31T02:43:20.414Z,14.10
2022-12-31T02:44:52.197Z,14.20
2022-12-31T02:46:34.014Z,14.20
2022-12-31T02:48:22.136Z,14.30
2022-12-31T02:50:10.645Z,14.30
2022-12-31T02:52:00.117Z,14.30
2022-12-31T02:53:48.620Z,14.20
2022-12-31T02:55:27.885Z,14.20
2022-12-31T02:57:09.295Z,14.20
2022-12-31T02:59:06.902Z,14.20
2022-12-31T03:01:03.356Z,14.20
2022-12-31T03:02:39.170Z,14.20
2022-12-31T03:04:30.967Z,14.10
2022-12-31T03:06:05.293Z,14.20
2022-12-31T03:07:37.977Z,14.30
2022-12-31T03:09:12.620Z,14.30
2022-12-31T03:10:45.307Z,14.30
2022-12-31T03:12:37.051Z,14.30
2022-12-31T03:14:08.799Z,14.30
2022-12-31T03:15:41.534Z,14.30
2022-12-31T03:17:13.680Z,14.30
2022-12-31T03:19:01.686Z,14.30
2022-12-31T03:20:53.866Z,14.30
2022-12-31T03:22:29.570Z,14.30
2022-12-31T03:24:19.865Z,14.40
2022-12-31T03:25:53.280Z,14.50
2022-12-31T03:27:25.067Z,14.40
2022-12-31T03:28:57.751Z,14.40
2022-12-31T03:30:31.742Z,14.40
2022-12-31T03:32:03.838Z,14.30
2022-12-31T03:33:38.602Z,14.40
2022-12-31T03:35:13.145Z,14.30
2022-12-31T03:36:45.821Z,14.30
2022-12-31T03:38:19.028Z,14.30
2022-12-31T03:39:50.767Z,14.30
2022-12-31T03:41:23.475Z,14.30
2022-12-31T03:42:56.540Z,14.30
2022-12-31T03:44:28.281Z,14.30
2022-12-31T03:46:01.539Z,14.30
2022-12-31T03:47:33.460Z,14.30
2022-12-31T03:49:06.163Z,14.30
2022-12-31T03:50:40.223Z,14.30
2022-12-31T03:52:11.971Z,14.30
2022-12-31T03:53:44.709Z,14.30
2022-12-31T03:55:17.474Z,14.30
2022-12-31T03:56:49.672Z,14.30
2022-12-31T03:58:23.353Z,14.30
2022-12-31T03:59:55.113Z,14.30
2022-12-31T04:01:27.890Z,14.30
2022-12-31T04:03:00.768Z,14.30
2022-12-31T04:04:32.557Z,14.30
2022-12-31T04:06:06.883Z,14.30
2022-12-31T04:07:40.165Z,14.30
2022-12-31T04:09:12.941Z,14.30
2022-12-31T04:10:45.655Z,14.30
2022-12-31T04:12:18.402Z,14.30
2022-12-31T04:13:51.113Z,14.30
2022-12-31T04:15:23.807Z,14.30
2022-12-31T04:16:55.548Z,14.30
2022-12-31T04:18:28.275Z,14.30
2022-12-31T04:20:00.958Z,14.40
2022-12-31T04:21:35.487Z,14.40
2022-12-31T04:23:08.188Z,14.40
2022-12-31T04:24:40.894Z,14.40
2022-12-31T04:26:13.606Z,14.40
2022-12-31T04:27:46.333Z,14.40
2022-12-31T04:29:18.092Z,14.40
2022-12-31T04:30:50.816Z,14.40
2022-12-31T04:32:23.509Z,14.40
2022-12-31T04:33:55.266Z,14.40
2022-12-31T04:35:27.974Z,14.50
2022-12-31T04:37:02.331Z,14.50
2022-12-31T04:38:35.390Z,14.50
2022-12-31T04:40:09.707Z,14.50
2022-12-31T04:41:41.448Z,14.50
2022-12-31T04:43:14.202Z,14.50
2022-12-31T04:44:46.892Z,14.50
2022-12-31T04:46:20.531Z,14.50
2022-12-31T04:47:53.279Z,14.50
2022-12-31T04:49:25.963Z,14.50
2022-12-31T04:50:57.716Z,14.60
2022-12-31T04:52:34.608Z,14.50
2022-12-31T04:54:11.433Z,14.60
2022-12-31T04:55:44.144Z,14.60
2022-12-31T04:57:16.911Z,14.50
2022-12-31T04:58:49.660Z,14.50
2022-12-31T05:00:22.467Z,14.60
2022-12-31T05:01:56.318Z,14.50
2022-12-31T05:03:28.395Z,14.60
2022-12-31T05:05:01.122Z,14.60
2022-12-31T05:06:33.924Z,14.60
2022-12-31T05:08:06.991Z,14.60
2022-12-31T05:09:39.732Z,14.70
2022-12-31T05:11:12.190Z,14.70
2022-12-31T05:12:44.881Z,14.70
2022-12-31T05:14:17.573Z,14.70
2022-12-31T05:15:49.637Z,14.70
2022-12-31T05:17:22.404Z,14.80
2022-12-31T05:18:55.103Z,14.80
2022-12-31T05:20:27.015Z,14.70
2022-12-31T05:22:17.386Z,14.70
2022-12-31T05:23:51.442Z,14.70
2022-12-31T05:25:24.193Z,14.70
2022-12-31T05:26:56.891Z,14.70
2022-12-31T05:28:29.778Z,14.80
2022-12-31T05:30:02.492Z,14.70
2022-12-31T05:31:35.223Z,14.70
2022-12-31T05:33:07.015Z,14.70
2022-12-31T05:34:39.748Z,14.70
2022-12-31T05:36:12.443Z,14.70
2022-12-31T05:37:44.275Z,14.80
2022-12-31T05:39:18.501Z,14.80
2022-12-31T05:40:51.206Z,14.80
2022-12-31T05:42:23.258Z,14.80
2022-12-31T05:43:55.959Z,14.90
2022-12-31T05:45:30.989Z,14.80
2022-12-31T05:47:03.953Z,14.90
2022-12-31T05:48:36.722Z,14.90
2022-12-31T05:50:09.659Z,14.80
2022-12-31T05:51:42.451Z,14.80
2022-12-31T05:53:15.174Z,14.80
2022-12-31T05:54:49.309Z,14.80
2022-12-31T05:56:22.112Z,14.80
2022-12-31T05:57:54.820Z,14.80
2022-12-31T05:59:27.561Z,14.90
2022-12-31T06:01:00.302Z,14.90
2022-12-31T06:02:32.158Z,14.90
2022-12-31T06:04:05.089Z,14.90
2022-12-31T06:05:41.831Z,14.90
2022-12-31T06:07:14.682Z,14.90
2022-12-31T06:08:50.421Z,14.90
2022-12-31T06:10:24.495Z,14.90
2022-12-31T06:11:56.237Z,14.90
2022-12-31T06:13:28.935Z,15.00
2022-12-31T06:15:00.717Z,15.00
2022-12-31T06:16:33.488Z,15.00
2022-12-31T06:18:06.522Z,15.00
2022-12-31T06:19:39.210Z,15.00
2022-12-31T06:21:11.912Z,15.00
2022-12-31T06:22:44.669Z,15.00
2022-12-31T06:24:17.385Z,15.00
2022-12-31T06:25:51.483Z,15.00
2022-12-31T06:27:24.160Z,15.00
2022-12-31T06:28:56.957Z,15.10
2022-12-31T06:30:29.710Z,15.10
2022-12-31T06:32:01.444Z,15.10
2022-12-31T06:33:35.456Z,15.20
2022-12-31T06:35:08.820Z,15.10
2022-12-31T06:36:40.586Z,15.10
2022-12-31T06:38:13.283Z,15.10
2022-12-31T06:39:45.974Z,15.10
2022-12-31T06:41:20.261Z,15.10
2022-12-31T06:42:59.488Z,15.10
2022-12-31T06:44:32.712Z,15.10
2022-12-31T06:46:07.749Z,15.10
2022-12-31T06:47:40.548Z,15.20
2022-12-31T06:49:13.515Z,15.10
2022-12-31T06:50:46.236Z,15.10
2022-12-31T06:52:18.922Z,15.20
2022-12-31T06:53:51.483Z,15.10
2022-12-31T06:55:24.854Z,15.10
2022-12-31T06:56:59.566Z,15.10
2022-12-31T06:58:31.837Z,15.10
2022-12-31T07:00:06.743Z,15.10
2022-12-31T07:01:52.179Z,15.10
2022-12-31T07:03:37.457Z,15.10
2022-12-31T07:05:22.273Z,15.10
2022-12-31T07:07:02.336Z,15.20
2022-12-31T07:08:45.229Z,15.10
2022-12-31T07:10:29.465Z,15.20
2022-12-31T07:12:12.369Z,15.20
2022-12-31T07:14:00.158Z,15.20
2022-12-31T07:15:48.056Z,15.30
2022-12-31T07:17:30.620Z,15.20
2022-12-31T07:19:17.727Z,15.20
2022-12-31T07:20:50.901Z,15.20
2022-12-31T07:22:24.116Z,15.20
2022-12-31T07:23:57.295Z,15.20
2022-12-31T07:25:30.896Z,15.20
2022-12-31T07:27:20.659Z,15.10
2022-12-31T07:29:01.484Z,15.10
2022-12-31T07:30:40.309Z,15.10
2022-12-31T07:32:23.121Z,15.20
2022-12-31T07:34:00.486Z,15.20
2022-12-31T07:35:42.910Z,15.20
2022-12-31T07:37:26.207Z,15.20
2022-12-31T07:39:06.173Z,15.20
2022-12-31T07:40:49.784Z,15.20
2022-12-31T07:42:31.464Z,15.20
2022-12-31T07:44:12.552Z,15.20
2022-12-31T07:45:51.612Z,15.20
2022-12-31T07:47:26.118Z,15.20
2022-12-31T07:48:59.877Z,15.10
2022-12-31T07:50:33.121Z,15.20
2022-12-31T07:52:06.555Z,15.10
2022-12-31T07:53:39.573Z,15.10
2022-12-31T07:55:12.677Z,15.10
2022-12-31T07:56:44.957Z,15.20
2022-12-31T07:58:23.718Z,15.10
2022-12-31T08:00:04.954Z,15.10
2022-12-31T08:01:44.041Z,15.20
2022-12-31T08:03:28.238Z,15.20
2022-12-31T08:05:09.143Z,15.10
2022-12-31T08:06:51.499Z,15.10
2022-12-31T08:08:36.199Z,15.20
2022-12-31T08:10:17.988Z,15.10
2022-12-31T08:11:57.640Z,15.10
2022-12-31T08:13:32.210Z,15.10
2022-12-31T08:15:14.198Z,15.10
2022-12-31T08:16:47.390Z,15.10
2022-12-31T08:18:20.565Z,15.10
2022-12-31T08:19:53.860Z,15.00
2022-12-31T08:21:41.537Z,15.00
2022-12-31T08:23:22.980Z,15.00
2022-12-31T08:25:09.074Z,15.00
2022-12-31T08:26:53.300Z,15.00
2022-12-31T08:28:36.898Z,15.10
2022-12-31T08:30:13.263Z,15.00
2022-12-31T08:31:53.844Z,15.10
2022-12-31T08:33:33.490Z,15.00
2022-12-31T08:35:19.653Z,15.00
2022-12-31T08:36:58.846Z,15.00
2022-12-31T08:38:37.185Z,15.00
2022-12-31T08:40:21.250Z,15.00
2022-12-31T08:41:57.337Z,15.00
2022-12-31T08:43:45.824Z,15.00
2022-12-31T08:45:24.167Z,15.00
2022-12-31T08:47:03.403Z,15.10
2022-12-31T08:48:40.935Z,15.10
2022-12-31T08:50:18.578Z,15.10
2022-12-31T08:51:51.831Z,15.00
2022-12-31T08:53:25.238Z,15.10
2022-12-31T08:54:59.021Z,15.10
2022-12-31T08:56:35.475Z,15.10
2022-12-31T08:58:22.592Z,15.10
2022-12-31T09:00:05.132Z,15.10
2022-12-31T09:01:49.363Z,15.10
2022-12-31T09:03:37.218Z,15.10
2022-12-31T09:05:18.520Z,15.10
2022-12-31T09:06:57.854Z,15.10
2022-12-31T09:08:42.470Z,15.10
2022-12-31T09:10:20.085Z,15.10
2022-12-31T09:12:01.243Z,15.10
2022-12-31T09:13:47.171Z,15.10
2022-12-31T09:15:26.168Z,15.10
2022-12-31T09:17:05.252Z,15.10
2022-12-31T09:18:41.287Z,15.10
2022-12-31T09:20:22.902Z,15.20
2022-12-31T09:21:56.647Z,15.20
2022-12-31T09:23:29.744Z,15.30
2022-12-31T09:25:02.816Z,15.20
2022-12-31T09:26:47.995Z,15.30
2022-12-31T09:28:34.398Z,15.30
2022-12-31T09:30:09.515Z,15.30
2022-12-31T09:31:53.116Z,15.30
2022-12-31T09:33:37.292Z,15.30
2022-12-31T09:35:29.631Z,15.30
2022-12-31T09:37:07.608Z,15.30
2022-12-31T09:38:47.115Z,15.30
2022-12-31T09:40:54.308Z,15.30
2022-12-31T09:42:53.801Z,15.30
2022-12-31T09:45:08.199Z,15.20
2022-12-31T09:47:27.522Z,15.30
2022-12-31T09:49:23.941Z,15.30
2022-12-31T09:51:07.945Z,15.40
2022-12-31T09:52:52.063Z,15.30
2022-12-31T09:54:37.499Z,15.40
2022-12-31T09:56:18.296Z,15.40
2022-12-31T09:58:07.885Z,15.40
2022-12-31T09:59:47.167Z,15.40
2022-12-31T10:01:42.621Z,15.40
2022-12-31T10:03:30.832Z,15.50
2022-12-31T10:05:22.413Z,15.50
2022-12-31T10:07:08.250Z,15.50
2022-12-31T10:09:03.602Z,15.50
2022-12-31T10:10:47.128Z,15.60
2022-12-31T10:12:47.031Z,15.60
2022-12-31T10:14:38.097Z,15.60
2022-12-31T10:16:25.561Z,15.70
2022-12-31T10:18:07.848Z,15.70
2022-12-31T10:20:08.277Z,15.70
2022-12-31T10:21:54.132Z,15.70
2022-12-31T10:23:54.593Z,15.70
2022-12-31T10:25:45.479Z,15.80
2022-12-31T10:27:28.783Z,15.90
2022-12-31T10:29:11.839Z,16.00
2022-12-31T10:30:51.226Z,16.10
2022-12-31T10:32:36.279Z,16.20
2022-12-31T10:34:16.340Z,16.30
2022-12-31T10:35:55.367Z,16.50
2022-12-31T10:37:36.069Z,16.60
2022-12-31T10:39:24.292Z,16.70
2022-12-31T10:41:29.788Z,16.80
2022-12-31T10:43:32.568Z,17.00
2022-12-31T10:45:43.939Z,17.10
2022-12-31T10:47:44.098Z,17.20
2022-12-31T10:49:37.981Z,17.40
2022-12-31T10:52:05.408Z,17.40
2022-12-31T10:54:04.546Z,17.50
2022-12-31T10:56:15.898Z,17.50
2022-12-31T10:58:17.133Z,17.60
2022-12-31T11:00:10.152Z,17.60
2022-12-31T11:01:50.143Z,17.60
2022-12-31T11:04:08.125Z,17.70
2022-12-31T11:06:26.955Z,17.70
2022-12-31T11:08:17.366Z,17.70
2022-12-31T11:10:18.626Z,17.60
2022-12-31T11:11:59.563Z,17.50
2022-12-31T11:14:17.625Z,17.50
2022-12-31T11:16:12.507Z,17.40
2022-12-31T11:17:55.181Z,17.40
2022-12-31T11:19:37.350Z,17.40
2022-12-31T11:21:28.645Z,17.30
2022-12-31T11:23:18.018Z,17.30
2022-12-31T11:25:12.398Z,17.30
2022-12-31T11:26:59.821Z,17.20
2022-12-31T11:28:50.646Z,17.20
2022-12-31T11:30:30.540Z,17.10
2022-12-31T11:32:22.367Z,17.10
2022-12-31T11:34:10.554Z,17.10
2022-12-31T11:35:57.487Z,17.10
2022-12-31T11:37:37.655Z,17.10
2022-12-31T11:39:31.446Z,17.10
2022-12-31T11:41:08.536Z,17.10
2022-12-31T11:42:47.150Z,17.10
2022-12-31T11:44:33.302Z,17.20
2022-12-31T11:46:38.400Z,17.20
2022-12-31T11:48:30.182Z,17.30
2022-12-31T11:50:25.158Z,17.40
2022-12-31T11:52:15.073Z,17.40
2022-12-31T11:54:19.904Z,17.30
2022-12-31T11:56:08.674Z,17.20
2022-12-31T11:57:47.395Z,17.20
2022-12-31T11:59:20.130Z,17.20
2022-12-31T12:00:57.011Z,17.10
2022-12-31T12:02:34.699Z,17.10
2022-12-31T12:04:07.652Z,17.10
2022-12-31T12:05:41.233Z,17.10
2022-12-31T12:07:16.436Z,17.10
2022-12-31T12:08:50.057Z,17.10
2022-12-31T12:10:31.755Z,17.10
2022-12-31T12:12:09.618Z,17.00
2022-12-31T12:13:42.344Z,17.00
2022-12-31T12:15:20.046Z,17.10
2022-12-31T12:16:59.151Z,17.10
2022-12-31T12:18:41.838Z,17.20
2022-12-31T12:20:19.226Z,17.30
2022-12-31T12:21:51.938Z,17.40
2022-12-31T12:23:26.906Z,17.40
2022-12-31T12:25:06.232Z,17.40
2022-12-31T12:26:41.384Z,17.50
2022-12-31T12:28:24.449Z,17.50
2022-12-31T12:29:57.219Z,17.60
2022-12-31T12:31:30.524Z,17.60
2022-12-31T12:33:04.754Z,17.50
2022-12-31T12:34:43.236Z,17.60
2022-12-31T12:36:22.087Z,17.60
2022-12-31T12:38:03.216Z,17.50
2022-12-31T12:39:36.306Z,17.40
2022-12-31T12:41:12.749Z,17.40
2022-12-31T12:42:48.453Z,17.40
2022-12-31T12:44:22.493Z,17.30
2022-12-31T12:45:59.963Z,17.30
2022-12-31T12:47:33.039Z,17.30
2022-12-31T12:49:06.468Z,17.30
2022-12-31T12:50:43.898Z,17.30
2022-12-31T12:52:59.381Z,17.30
2022-12-31T12:54:46.325Z,17.30
2022-12-31T12:56:31.081Z,17.30
2022-12-31T12:58:17.141Z,17.30
2022-12-31T13:00:13.831Z,17.50
2022-12-31T13:01:55.318Z,17.40
2022-12-31T13:04:32.888Z,17.40
2022-12-31T13:06:05.987Z,17.40
2022-12-31T13:07:52.034Z,17.30
2022-12-31T13:09:37.779Z,17.40
2022-12-31T13:11:28.947Z,17.40
2022-12-31T13:13:23.703Z,17.30
2022-12-31T13:15:03.967Z,17.30
2022-12-31T13:16:43.538Z,17.30
2022-12-31T13:18:29.493Z,17.30
2022-12-31T13:20:07.946Z,17.20
2022-12-31T13:21:50.254Z,17.20
2022-12-31T13:23:27.532Z,17.20
2022-12-31T13:25:05.405Z,17.10
2022-12-31T13:26:44.543Z,17.20
2022-12-31T13:28:19.915Z,17.10
2022-12-31T13:29:55.975Z,17.10
2022-12-31T13:31:34.984Z,17.10
2022-12-31T13:33:16.456Z,17.10
2022-12-31T13:34:52.809Z,17.10
2022-12-31T13:36:28.471Z,17.10
2022-12-31T13:38:05.983Z,17.10
2022-12-31T13:39:41.888Z,17.10
2022-12-31T13:41:19.848Z,17.10
2022-12-31T13:42:57.783Z,17.00
2022-12-31T13:44:36.156Z,17.00
2022-12-31T13:46:18.815Z,17.00
2022-12-31T13:47:55.939Z,17.00
2022-12-31T13:49:33.050Z,17.00
2022-12-31T13:51:13.158Z,17.00
2022-12-31T13:52:49.841Z,16.90
2022-12-31T13:54:32.027Z,16.90
2022-12-31T13:56:10.206Z,17.00
2022-12-31T13:57:46.444Z,16.90
2022-12-31T13:59:24.614Z,16.90
2022-12-31T14:01:02.544Z,16.90
2022-12-31T14:02:42.528Z,16.90
2022-12-31T14:04:25.661Z,16.80
2022-12-31T14:06:02.888Z,16.80
2022-12-31T14:07:45.379Z,16.80
2022-12-31T14:09:22.957Z,16.80
2022-12-31T14:11:03.946Z,16.70
2022-12-31T14:12:46.590Z,16.70
2022-12-31T14:14:30.415Z,16.70
2022-12-31T14:16:16.121Z,16.70
2022-12-31T14:17:56.409Z,16.70
2022-12-31T14:19:44.964Z,16.70
2022-12-31T14:21:24.182Z,16.70
2022-12-31T14:23:05.830Z,16.70
2022-12-31T14:24:45.056Z,16.70
2022-12-31T14:26:23.840Z,16.70
2022-12-31T14:27:58.003Z,16.70
2022-12-31T14:29:33.915Z,16.70
2022-12-31T14:31:26.285Z,16.60
2022-12-31T14:33:17.079Z,16.60
2022-12-31T14:34:59.361Z,16.70
2022-12-31T14:36:41.754Z,16.60
2022-12-31T14:38:24.888Z,16.60
2022-12-31T14:40:07.204Z,16.60
2022-12-31T14:41:50.163Z,16.50
2022-12-31T14:43:31.438Z,16.50
2022-12-31T14:45:18.389Z,16.50
2022-12-31T14:47:03.968Z,16.50
2022-12-31T14:48:47.016Z,16.50
2022-12-31T14:50:25.927Z,16.50
2022-12-31T14:52:09.120Z,16.40
2022-12-31T14:53:53.011Z,16.40
2022-12-31T14:55:29.326Z,16.40
2022-12-31T14:57:11.291Z,16.30
2022-12-31T14:58:43.999Z,16.30
2022-12-31T15:00:27.055Z,16.40
2022-12-31T15:01:59.920Z,16.30
2022-12-31T15:03:45.915Z,16.30
2022-12-31T15:05:23.008Z,16.30
2022-12-31T15:07:00.019Z,16.30
2022-12-31T15:08:51.275Z,16.20
2022-12-31T15:10:30.034Z,16.20
2022-12-31T15:12:29.685Z,16.20
2022-12-31T15:14:39.703Z,16.20
2022-12-31T15:16:37.980Z,16.10
2022-12-31T15:18:28.297Z,16.10
2022-12-31T15:20:32.816Z,16.10
2022-12-31T15:22:12.098Z,16.10
2022-12-31T15:23:46.112Z,16.00
2022-12-31T15:25:36.762Z,16.00
2022-12-31T15:27:31.766Z,16.00
2022-12-31T15:29:07.203Z,15.90
2022-12-31T15:30:45.345Z,15.90
2022-12-31T15:32:21.326Z,15.80
2022-12-31T15:33:57.886Z,15.80
2022-12-31T15:35:44.248Z,15.80
2022-12-31T15:37:30.913Z,15.80
2022-12-31T15:39:26.587Z,15.70
2022-12-31T15:41:00.431Z,15.70
2022-12-31T15:42:49.680Z,15.70
2022-12-31T15:44:27.896Z,15.60
2022-12-31T15:46:01.466Z,15.70
2022-12-31T15:47:38.117Z,15.60
2022-12-31T15:49:16.022Z,15.60
2022-12-31T15:50:52.132Z,15.60
2022-12-31T15:52:29.400Z,15.60
2022-12-31T15:54:03.995Z,15.50
2022-12-31T15:55:43.269Z,15.50
2022-12-31T15:57:18.962Z,15.50
2022-12-31T15:58:57.023Z,15.50
2022-12-31T16:00:37.461Z,15.40
2022-12-31T16:02:21.007Z,15.40
2022-12-31T16:03:58.211Z,15.50
2022-12-31T16:05:35.584Z,15.50
2022-12-31T16:07:12.331Z,15.50
2022-12-31T16:08:47.085Z,15.60
2022-12-31T16:10:26.012Z,15.50
2022-12-31T16:12:01.069Z,15.60
2022-12-31T16:13:37.502Z,15.50
2022-12-31T16:15:21.385Z,15.50
2022-12-31T16:16:56.428Z,15.60
2022-12-31T16:18:38.920Z,15.60
2022-12-31T16:20:23.657Z,15.60
2022-12-31T16:21:57.514Z,15.50
2022-12-31T16:23:31.560Z,15.50
2022-12-31T16:27:03.271Z,15.50
2022-12-31T16:28:36.226Z,15.40
2022-12-31T16:30:21.163Z,15.40
2022-12-31T16:31:54.784Z,15.40
2022-12-31T16:33:27.678Z,15.50
2022-12-31T16:35:00.362Z,15.50
2022-12-31T16:36:33.529Z,15.50
2022-12-31T16:38:15.605Z,15.50
2022-12-31T16:40:21.329Z,15.50
2022-12-31T16:42:07.419Z,15.50
2022-12-31T16:43:41.931Z,15.50
2022-12-31T16:45:25.620Z,15.50
2022-12-31T16:47:00.635Z,15.50
2022-12-31T16:48:33.478Z,15.50
2022-12-31T16:50:11.208Z,15.50
2022-12-31T16:51:44.076Z,15.50
2022-12-31T16:53:20.893Z,15.50
2022-12-31T16:54:55.039Z,15.50
2022-12-31T16:56:33.494Z,15.50
2022-12-31T16:58:17.743Z,15.50
2022-12-31T16:59:55.685Z,15.50
2022-12-31T17:01:32.393Z,15.50
2022-12-31T17:03:11.709Z,15.50
2022-12-31T17:04:55.146Z,15.50
2022-12-31T17:06:32.084Z,15.50
2022-12-31T17:08:26.821Z,15.40
2022-12-31T17:10:03.884Z,15.40
2022-12-31T17:11:45.113Z,15.40
2022-12-31T17:13:30.409Z,15.40
2022-12-31T17:15:05.938Z,15.40
2022-12-31T17:16:43.454Z,15.40
2022-12-31T17:18:19.792Z,15.40
2022-12-31T17:19:58.342Z,15.40
2022-12-31T17:21:34.269Z,15.40
2022-12-31T17:23:09.540Z,15.40
2022-12-31T17:24:42.713Z,15.40
2022-12-31T17:26:24.810Z,15.40
2022-12-31T17:28:00.948Z,15.40
2022-12-31T17:29:34.757Z,15.40
2022-12-31T17:31:35.890Z,15.40
2022-12-31T17:33:35.350Z,15.40
2022-12-31T17:35:28.773Z,15.40
2022-12-31T17:37:19.809Z,15.40
2022-12-31T17:38:52.595Z,15.40
2022-12-31T17:40:54.154Z,15.40
2022-12-31T17:42:32.122Z,15.40
2022-12-31T17:44:06.297Z,15.40
2022-12-31T17:45:39.698Z,15.40
2022-12-31T17:47:14.582Z,15.40
2022-12-31T17:48:52.244Z,15.40
2022-12-31T17:50:26.523Z,15.40
2022-12-31T17:51:59.238Z,15.30
2022-12-31T17:53:31.977Z,15.30
2022-12-31T17:55:05.168Z,15.30
2022-12-31T17:56:37.878Z,15.40
2022-12-31T17:58:18.782Z,15.30
2022-12-31T17:59:53.041Z,15.40
2022-12-31T18:01:27.034Z,15.40
2022-12-31T18:03:00.054Z,15.40
2022-12-31T18:04:32.822Z,15.40
2022-12-31T18:06:09.126Z,15.40
2022-12-31T18:07:44.223Z,15.40
2022-12-31T18:09:18.007Z,15.40
2022-12-31T18:10:51.593Z,15.40
2022-12-31T18:12:24.296Z,15.40
2022-12-31T18:13:57.099Z,15.40
2022-12-31T18:15:31.547Z,15.40
2022-12-31T18:17:04.239Z,15.40
2022-12-31T18:18:39.850Z,15.40
2022-12-31T18:20:13.187Z,15.30
2022-12-31T18:21:45.955Z,15.30
2022-12-31T18:23:21.598Z,15.30
2022-12-31T18:24:55.044Z,15.30
2022-12-31T18:26:28.011Z,15.30
2022-12-31T18:28:00.737Z,15.20
2022-12-31T18:29:33.528Z,15.20
2022-12-31T18:31:07.671Z,15.20
2022-12-31T18:32:41.566Z,15.20
2022-12-31T18:34:18.388Z,15.20
2022-12-31T18:36:08.661Z,15.30
2022-12-31T18:37:41.833Z,15.30
2022-12-31T18:39:14.566Z,15.30
2022-12-31T18:40:52.927Z,15.30
2022-12-31T18:42:27.745Z,15.30
2022-12-31T18:44:00.477Z,15.20
2022-12-31T18:45:33.271Z,15.20
2022-12-31T18:47:12.408Z,15.20
2022-12-31T18:48:45.198Z,15.30
2022-12-31T18:50:18.402Z,15.20
2022-12-31T18:51:54.051Z,15.20
2022-12-31T18:53:26.798Z,15.20
2022-12-31T18:54:59.494Z,15.20
2022-12-31T18:56:32.327Z,15.20
2022-12-31T18:58:05.033Z,15.20
2022-12-31T18:59:37.727Z,15.20
2022-12-31T19:01:26.976Z,15.30
2022-12-31T19:03:01.597Z,15.30
2022-12-31T19:04:34.319Z,15.20
2022-12-31T19:06:07.452Z,15.20
2022-12-31T19:07:40.154Z,15.20
2022-12-31T19:09:43.294Z,15.20
2022-12-31T19:11:06.463Z,15.20
2022-12-31T19:12:39.190Z,15.20
2022-12-31T19:14:16.002Z,15.20
2022-12-31T19:15:50.142Z,15.20
2022-12-31T19:17:22.837Z,15.20
2022-12-31T19:18:56.850Z,15.20
2022-12-31T19:20:30.442Z,15.30
2022-12-31T19:22:03.556Z,15.30
2022-12-31T19:23:36.309Z,15.30
2022-12-31T19:25:17.932Z,15.30
2022-12-31T19:26:51.040Z,15.30
2022-12-31T19:28:25.930Z,15.30
2022-12-31T19:30:00.512Z,15.30
2022-12-31T19:31:33.258Z,15.30
2022-12-31T19:33:06.108Z,15.20
2022-12-31T19:34:40.168Z,15.20
2022-12-31T19:36:16.180Z,15.30
2022-12-31T19:37:51.247Z,15.20
2022-12-31T19:39:24.029Z,15.20
2022-12-31T19:40:57.149Z,15.10
2022-12-31T19:42:29.922Z,15.10
2022-12-31T19:44:02.634Z,15.10
2022-12-31T19:45:35.469Z,15.10
2022-12-31T19:47:12.671Z,15.10
2022-12-31T19:48:46.138Z,15.10
2022-12-31T19:50:22.536Z,15.10
2022-12-31T19:51:55.333Z,15.10
2022-12-31T19:53:28.779Z,15.00
2022-12-31T19:55:01.547Z,15.00
2022-12-31T19:56:34.597Z,15.00
2022-12-31T19:58:07.337Z,15.00
2022-12-31T19:59:40.150Z,15.00
2022-12-31T20:01:19.902Z,15.00
2022-12-31T20:02:52.854Z,15.00
2022-12-31T20:04:25.825Z,14.90
2022-12-31T20:06:06.118Z,14.90
2022-12-31T20:07:38.940Z,14.90
2022-12-31T20:09:12.401Z,14.90
2022-12-31T20:10:45.954Z,14.90
2022-12-31T20:12:18.644Z,14.80
2022-12-31T20:13:53.477Z,14.80
2022-12-31T20:15:26.507Z,14.70
2022-12-31T20:16:59.344Z,14.70
2022-12-31T20:18:32.052Z,14.70
2022-12-31T20:20:05.684Z,14.70
2022-12-31T20:21:40.127Z,14.60
2022-12-31T20:23:12.829Z,14.60
2022-12-31T20:24:45.562Z,14.60
2022-12-31T20:26:18.935Z,14.60
2022-12-31T20:27:53.756Z,14.60
2022-12-31T20:29:26.489Z,14.50
2022-12-31T20:30:59.475Z,14.50
2022-12-31T20:32:32.348Z,14.50
2022-12-31T20:34:05.062Z,14.50
2022-12-31T20:35:37.791Z,14.50
2022-12-31T20:37:11.937Z,14.50
2022-12-31T20:38:44.989Z,14.50
2022-12-31T20:40:17.859Z,14.50
2022-12-31T20:41:50.550Z,14.50
2022-12-31T20:43:23.258Z,14.50
2022-12-31T20:44:55.943Z,14.50
2022-12-31T20:46:30.798Z,14.50
2022-12-31T20:48:03.530Z,14.50
2022-12-31T20:50:09.785Z,14.50
2022-12-31T20:51:31.581Z,14.50
2022-12-31T20:53:05.634Z,14.50
2022-12-31T20:54:38.343Z,14.60
2022-12-31T20:56:11.090Z,14.60
2022-12-31T20:57:43.796Z,14.60
2022-12-31T20:59:16.531Z,14.60
2022-12-31T21:00:50.812Z,14.70
2022-12-31T21:02:39.249Z,14.70
2022-12-31T21:04:14.133Z,14.70
2022-12-31T21:05:50.779Z,14.70
2022-12-31T21:07:23.626Z,14.70
2022-12-31T21:08:59.858Z,14.70
2022-12-31T21:10:33.523Z,14.70
2022-12-31T21:12:24.224Z,14.70
2022-12-31T21:13:57.935Z,14.80